Time;durP1;ratioP1;P1;durP2;ratioP2;P2;SDS_P1;SDS_P2;PMS_P1;PMS_P2;Temp;Humidity;BMP_temperature;BMP_pressure;BME280_temperature;BME280_humidity;BME280_pressure;Samples;Min_cycle;Max_cycle;Signal;HPM_P1;HPM_P2
2023/12/26 00:00:01;;;;;;;1.60;1.00;;;11.90;98.20;;;;;;6118289;23;20845;-81
2023/12/26 00:02:28;;;;;;;1.60;1.10;;;11.90;98.20;;;;;;6101418;23;20477;-80
2023/12/26 00:04:55;;;;;;;1.60;1.10;;;11.90;98.20;;;;;;6115776;23;20441;-79
2023/12/26 00:07:23;;;;;;;1.60;1.10;;;11.90;98.20;;;;;;6102700;23;20501;-80
2023/12/26 00:09:50;;;;;;;1.60;1.00;;;11.90;98.20;;;;;;6118240;23;20418;-81
2023/12/26 00:12:18;;;;;;;1.60;1.10;;;11.90;98.20;;;;;;6102754;23;20450;-81
2023/12/26 00:14:45;;;;;;;1.60;1.00;;;11.90;98.20;;;;;;6117302;23;20938;-80
2023/12/26 00:17:12;;;;;;;1.60;1.03;;;11.90;98.20;;;;;;6101503;23;20525;-80
2023/12/26 00:19:39;;;;;;;1.60;1.10;;;11.90;98.20;;;;;;6116780;23;20449;-80
2023/12/26 00:22:06;;;;;;;1.70;1.20;;;11.80;98.20;;;;;;6102651;23;20536;-81
2023/12/26 00:24:33;;;;;;;1.60;1.00;;;11.80;98.20;;;;;;6116607;23;20509;-80
2023/12/26 00:29:43;;;;;;;1.60;1.10;;;11.80;98.20;;;;;;6023912;23;20421;-81
2023/12/26 00:32:10;;;;;;;1.60;1.20;;;11.80;98.20;;;;;;6101830;23;20472;-81
2023/12/26 00:34:36;;;;;;;1.60;1.00;;;11.80;98.20;;;;;;6117106;23;20512;-81
2023/12/26 00:37:04;;;;;;;1.60;1.10;;;11.70;98.20;;;;;;6102217;23;20509;-80
2023/12/26 00:39:30;;;;;;;1.70;1.10;;;11.80;98.20;;;;;;6117186;23;20428;-80
2023/12/26 00:41:57;;;;;;;1.60;1.10;;;11.70;98.20;;;;;;6103335;23;20504;-81
2023/12/26 00:44:24;;;;;;;1.60;1.10;;;11.70;98.20;;;;;;6126136;23;20414;-81
2023/12/26 00:46:53;;;;;;;1.70;1.30;;;11.70;98.20;;;;;;6103220;23;20460;-81
2023/12/26 00:49:19;;;;;;;1.63;1.10;;;11.70;98.20;;;;;;6118686;23;20445;-80
2023/12/26 00:51:46;;;;;;;1.60;1.10;;;11.70;98.20;;;;;;6102517;23;20577;-80
2023/12/26 00:54:13;;;;;;;1.60;1.00;;;11.70;98.20;;;;;;6116450;23;20756;-80
2023/12/26 00:56:40;;;;;;;1.60;1.10;;;11.70;98.20;;;;;;6102472;23;21061;-81
2023/12/26 00:59:07;;;;;;;1.60;1.10;;;11.60;98.20;;;;;;6116813;23;20402;-80
2023/12/26 01:01:34;;;;;;;1.60;1.00;;;11.60;98.20;;;;;;6103574;23;20482;-81
2023/12/26 01:04:02;;;;;;;1.60;1.10;;;11.60;98.20;;;;;;6118736;23;20509;-80
2023/12/26 01:06:29;;;;;;;1.60;1.00;;;11.60;98.20;;;;;;6103342;23;20483;-81
2023/12/26 01:08:56;;;;;;;1.67;1.10;;;11.60;98.20;;;;;;6118653;23;20458;-81
2023/12/26 01:11:23;;;;;;;1.60;1.20;;;11.60;98.20;;;;;;6105968;23;20456;-81
2023/12/26 01:13:50;;;;;;;1.60;1.10;;;11.50;98.20;;;;;;6118688;23;20421;-81
2023/12/26 01:16:17;;;;;;;1.60;1.10;;;11.50;98.20;;;;;;6104696;23;20449;-81
2023/12/26 01:18:44;;;;;;;1.70;1.20;;;11.50;98.20;;;;;;6120096;23;20804;-80
2023/12/26 01:21:12;;;;;;;1.60;1.00;;;11.50;98.20;;;;;;6108380;23;20469;-81
2023/12/26 01:23:39;;;;;;;1.63;1.10;;;11.50;98.20;;;;;;6131682;23;21045;-82
2023/12/26 01:26:05;;;;;;;1.60;1.20;;;11.50;98.20;;;;;;6106191;23;20805;-81
2023/12/26 01:28:32;;;;;;;1.60;1.10;;;11.50;98.20;;;;;;6121493;23;20500;-80
2023/12/26 01:30:59;;;;;;;1.60;1.10;;;11.50;98.20;;;;;;6107794;23;20931;-81
2023/12/26 01:33:26;;;;;;;1.60;1.10;;;11.50;98.20;;;;;;6120602;23;20819;-81
2023/12/26 01:35:53;;;;;;;1.70;1.37;;;11.50;98.20;;;;;;6106234;23;20505;-82
2023/12/26 01:38:20;;;;;;;1.60;1.20;;;11.40;98.20;;;;;;6121644;23;20527;-82
2023/12/26 01:40:47;;;;;;;1.60;1.10;;;11.40;98.20;;;;;;6119136;23;20445;-81
2023/12/26 01:43:14;;;;;;;1.60;1.10;;;11.40;98.20;;;;;;6120149;23;20513;-81
2023/12/26 01:45:40;;;;;;;1.63;1.10;;;11.40;98.20;;;;;;6120835;23;20448;-81
2023/12/26 01:48:08;;;;;;;1.60;1.10;;;11.40;98.20;;;;;;6105577;23;20865;-80
2023/12/26 01:50:36;;;;;;;1.60;1.20;;;11.40;98.20;;;;;;6122560;23;20501;-80
2023/12/26 01:53:04;;;;;;;1.60;1.00;;;11.40;98.20;;;;;;6107484;23;20460;-82
2023/12/26 01:55:32;;;;;;;1.60;1.20;;;11.40;98.20;;;;;;6122080;23;20438;-82
2023/12/26 01:58:00;;;;;;;1.60;1.10;;;11.30;98.20;;;;;;6107545;23;20453;-81
2023/12/26 02:00:27;;;;;;;1.60;1.10;;;11.30;98.20;;;;;;6125728;23;20500;-83
2023/12/26 02:02:54;;;;;;;1.60;1.00;;;11.30;98.20;;;;;;6112346;23;20453;-83
2023/12/26 02:05:21;;;;;;;1.70;1.20;;;11.20;98.20;;;;;;6127300;23;20793;-83
2023/12/26 02:07:48;;;;;;;1.60;1.10;;;11.20;98.20;;;;;;6113422;23;20484;-82
2023/12/26 02:10:15;;;;;;;1.60;1.10;;;11.10;98.20;;;;;;6131050;23;20444;-84
2023/12/26 02:12:44;;;;;;;1.60;1.10;;;11.10;98.20;;;;;;6113919;23;20453;-83
2023/12/26 02:15:13;;;;;;;1.60;1.10;;;11.10;98.20;;;;;;6124236;23;20471;-81
2023/12/26 02:17:41;;;;;;;1.67;1.20;;;11.10;98.20;;;;;;6111154;23;20527;-81
2023/12/26 02:20:09;;;;;;;1.63;1.20;;;11.10;98.20;;;;;;6127553;23;20541;-81
2023/12/26 02:22:36;;;;;;;1.67;1.10;;;11.00;98.20;;;;;;6111214;23;20449;-83
2023/12/26 02:25:07;;;;;;;1.60;1.10;;;11.00;98.20;;;;;;6134077;23;20445;-81
2023/12/26 02:27:37;;;;;;;1.60;1.10;;;11.00;98.20;;;;;;6107947;23;20449;-81
2023/12/26 02:30:06;;;;;;;1.60;1.10;;;10.90;98.20;;;;;;6125343;23;20943;-82
2023/12/26 02:32:37;;;;;;;1.60;1.10;;;10.90;98.20;;;;;;6106734;23;20480;-80
2023/12/26 02:35:05;;;;;;;1.60;1.03;;;10.90;98.20;;;;;;6126547;23;20434;-81
2023/12/26 02:37:32;;;;;;;1.60;1.10;;;10.80;98.20;;;;;;6110232;23;20449;-81
2023/12/26 02:39:59;;;;;;;1.60;1.10;;;10.80;98.20;;;;;;6125541;23;20481;-80
2023/12/26 02:42:29;;;;;;;1.60;1.10;;;10.80;98.20;;;;;;6108737;23;20454;-81
2023/12/26 02:44:57;;;;;;;1.63;1.10;;;10.70;98.20;;;;;;6124659;23;20406;-79
2023/12/26 02:47:24;;;;;;;1.70;1.20;;;10.70;98.20;;;;;;6109423;23;20528;-81
2023/12/26 02:49:51;;;;;;;1.60;1.20;;;10.70;98.20;;;;;;6125044;23;20442;-81
2023/12/26 02:52:18;;;;;;;1.63;1.10;;;10.70;98.20;;;;;;6109291;23;20545;-81
2023/12/26 02:54:45;;;;;;;1.60;1.10;;;10.70;98.20;;;;;;6124644;23;20443;-81
2023/12/26 02:57:12;;;;;;;1.60;1.10;;;10.70;98.20;;;;;;6109559;23;20449;-80
2023/12/26 02:59:40;;;;;;;1.60;1.10;;;10.70;98.20;;;;;;6125836;23;20477;-80
2023/12/26 03:02:07;;;;;;;1.63;1.10;;;10.70;98.20;;;;;;6109376;23;20453;-81
2023/12/26 03:04:34;;;;;;;1.60;1.10;;;10.70;98.20;;;;;;6123534;23;20424;-82
2023/12/26 03:07:01;;;;;;;1.60;1.20;;;10.70;98.20;;;;;;6109513;23;20548;-80
2023/12/26 03:09:28;;;;;;;1.63;1.20;;;10.70;98.20;;;;;;6125778;23;20489;-82
2023/12/26 03:11:55;;;;;;;1.60;1.10;;;10.70;98.20;;;;;;6110653;23;20718;-81
2023/12/26 03:14:22;;;;;;;1.60;1.10;;;10.70;98.20;;;;;;6123999;23;20742;-81
2023/12/26 03:16:50;;;;;;;1.60;1.10;;;10.70;98.20;;;;;;6107126;23;20516;-81
2023/12/26 03:19:17;;;;;;;1.70;1.10;;;10.70;98.20;;;;;;6126815;23;20424;-79
2023/12/26 03:21:43;;;;;;;1.60;1.20;;;10.60;98.20;;;;;;6112477;23;20457;-82
2023/12/26 03:24:10;;;;;;;1.60;1.10;;;10.60;98.20;;;;;;6126269;23;20450;-81
2023/12/26 03:26:37;;;;;;;1.63;1.10;;;10.60;98.20;;;;;;6110640;23;20449;-81
2023/12/26 03:29:04;;;;;;;1.63;1.10;;;10.60;98.20;;;;;;6125388;23;20803;-81
2023/12/26 03:31:31;;;;;;;1.63;1.20;;;10.70;98.20;;;;;;6112210;23;20481;-82
2023/12/26 03:33:59;;;;;;;1.63;1.20;;;10.60;98.20;;;;;;6124469;23;20493;-82
2023/12/26 03:36:26;;;;;;;1.63;1.20;;;10.60;98.20;;;;;;6110801;23;20445;-82
2023/12/26 03:38:53;;;;;;;1.60;1.10;;;10.60;98.20;;;;;;6127554;23;20445;-82
2023/12/26 03:41:20;;;;;;;1.60;1.10;;;10.70;98.20;;;;;;6113978;23;20477;-84
2023/12/26 03:43:46;;;;;;;1.60;1.13;;;10.60;98.20;;;;;;6126154;23;20453;-81
2023/12/26 03:46:13;;;;;;;1.60;1.10;;;10.70;98.20;;;;;;6115008;23;20488;-82
2023/12/26 03:48:40;;;;;;;1.60;1.10;;;10.60;98.20;;;;;;6127616;23;20748;-82
2023/12/26 03:51:08;;;;;;;1.60;1.10;;;10.60;98.20;;;;;;6115802;23;20443;-82
2023/12/26 03:53:35;;;;;;;2.07;1.57;;;10.70;98.20;;;;;;6127261;23;20437;-82
2023/12/26 03:56:02;;;;;;;1.60;1.10;;;10.60;98.20;;;;;;6116162;23;20445;-81
2023/12/26 03:58:29;;;;;;;1.60;1.10;;;10.70;98.20;;;;;;6128083;23;20453;-82
2023/12/26 04:00:56;;;;;;;1.60;1.10;;;10.70;98.20;;;;;;6115889;23;20489;-82
2023/12/26 04:03:23;;;;;;;1.63;1.20;;;10.70;98.20;;;;;;6125776;23;20593;-83
2023/12/26 04:05:49;;;;;;;1.60;1.10;;;10.70;98.20;;;;;;6115063;23;20506;-85
2023/12/26 04:08:18;;;;;;;1.70;1.20;;;10.70;98.20;;;;;;6127262;23;20821;-82
2023/12/26 04:10:44;;;;;;;1.63;1.20;;;10.70;98.20;;;;;;6129233;23;20441;-82
2023/12/26 04:13:12;;;;;;;1.60;1.10;;;10.70;98.20;;;;;;6086204;23;20440;-80
2023/12/26 04:15:39;;;;;;;1.60;1.10;;;10.70;98.20;;;;;;6129186;23;20446;-83
2023/12/26 04:18:06;;;;;;;1.60;1.10;;;10.60;98.20;;;;;;6112744;23;20473;-82
2023/12/26 04:20:33;;;;;;;1.60;1.10;;;10.60;98.20;;;;;;6129030;23;20465;-83
2023/12/26 04:23:00;;;;;;;1.60;1.10;;;10.60;98.20;;;;;;6110741;23;20509;-81
2023/12/26 04:25:28;;;;;;;1.60;1.10;;;10.60;98.20;;;;;;6129636;23;20702;-83
2023/12/26 04:27:55;;;;;;;1.60;1.10;;;10.60;98.20;;;;;;6113730;23;20900;-82
2023/12/26 04:30:22;;;;;;;1.60;1.10;;;10.60;98.20;;;;;;6128515;23;20452;-82
2023/12/26 04:32:49;;;;;;;1.60;1.20;;;10.60;98.20;;;;;;6112380;23;20488;-83
2023/12/26 04:35:16;;;;;;;1.60;1.20;;;10.60;98.20;;;;;;6129582;23;20420;-83
2023/12/26 04:37:43;;;;;;;1.60;1.10;;;10.60;98.20;;;;;;6113810;23;20484;-83
2023/12/26 04:40:11;;;;;;;1.60;1.10;;;10.60;98.20;;;;;;6130873;23;20441;-83
2023/12/26 04:42:39;;;;;;;1.60;1.10;;;10.60;98.20;;;;;;6114897;23;20449;-82
2023/12/26 04:45:06;;;;;;;1.60;1.10;;;10.60;98.20;;;;;;6139654;23;20414;-83
2023/12/26 04:47:33;;;;;;;1.60;1.10;;;10.60;98.20;;;;;;6114100;23;20449;-83
2023/12/26 04:50:00;;;;;;;1.60;1.10;;;10.60;98.20;;;;;;6129063;23;20437;-83
2023/12/26 04:52:27;;;;;;;1.70;1.20;;;10.60;98.20;;;;;;6109679;23;20532;-82
2023/12/26 04:54:54;;;;;;;1.60;1.10;;;10.60;98.20;;;;;;6127910;23;20476;-81
2023/12/26 04:57:21;;;;;;;1.60;1.20;;;10.60;98.20;;;;;;6114812;23;20535;-82
2023/12/26 04:59:49;;;;;;;1.60;1.10;;;10.60;98.20;;;;;;6130452;23;20445;-82
2023/12/26 05:02:17;;;;;;;1.60;1.10;;;10.60;98.20;;;;;;6114203;23;20450;-81
2023/12/26 05:04:44;;;;;;;1.60;1.10;;;10.60;98.20;;;;;;6138498;23;20430;-81
2023/12/26 05:07:11;;;;;;;1.67;1.20;;;10.60;98.20;;;;;;6112866;23;20449;-82
2023/12/26 05:09:38;;;;;;;1.70;1.10;;;10.60;98.20;;;;;;6127268;23;20966;-83
2023/12/26 05:12:05;;;;;;;1.60;1.10;;;10.60;98.20;;;;;;6113998;23;20471;-81
2023/12/26 05:14:32;;;;;;;1.60;1.10;;;10.60;98.20;;;;;;6128597;23;20468;-82
2023/12/26 05:17:00;;;;;;;1.60;1.10;;;10.60;98.20;;;;;;6113088;23;20450;-83
2023/12/26 05:19:27;;;;;;;1.63;1.17;;;10.60;98.20;;;;;;6130460;23;20450;-82
2023/12/26 05:21:54;;;;;;;1.60;1.10;;;10.60;98.20;;;;;;6115664;23;20450;-83
2023/12/26 05:24:21;;;;;;;1.60;1.07;;;10.60;98.20;;;;;;6130751;23;20421;-83
2023/12/26 05:26:48;;;;;;;1.63;1.10;;;10.60;98.20;;;;;;6115851;23;20483;-81
2023/12/26 05:29:14;;;;;;;1.63;1.10;;;10.60;98.20;;;;;;6131059;23;20425;-82
2023/12/26 05:31:41;;;;;;;1.60;1.10;;;10.60;98.20;;;;;;6116565;23;20453;-83
2023/12/26 05:34:09;;;;;;;1.60;1.10;;;10.70;98.20;;;;;;6127122;23;20571;-82
2023/12/26 05:36:36;;;;;;;1.70;1.20;;;10.70;98.20;;;;;;6115668;23;20450;-84
2023/12/26 05:39:03;;;;;;;1.60;1.10;;;10.70;98.20;;;;;;6132647;23;20433;-83
2023/12/26 05:41:30;;;;;;;1.60;1.20;;;10.70;98.20;;;;;;6117261;23;20480;-83
2023/12/26 05:43:57;;;;;;;1.60;1.20;;;10.70;98.20;;;;;;6129657;23;20488;-83
2023/12/26 05:46:29;;;;;;;1.60;1.13;;;10.70;98.20;;;;;;6116799;23;20476;-82
2023/12/26 05:48:56;;;;;;;1.60;1.10;;;10.70;98.20;;;;;;6131934;23;20613;-84
2023/12/26 05:51:25;;;;;;;1.60;1.10;;;10.70;98.20;;;;;;6120596;23;20801;-83
2023/12/26 05:53:51;;;;;;;1.60;1.10;;;10.70;98.20;;;;;;6133253;23;20422;-82
2023/12/26 05:56:19;;;;;;;1.60;1.10;;;10.70;98.20;;;;;;6121167;23;20453;-83
2023/12/26 05:58:46;;;;;;;1.63;1.20;;;10.70;98.20;;;;;;6131614;23;20421;-84
2023/12/26 06:01:13;;;;;;;1.60;1.10;;;10.70;98.20;;;;;;6117112;23;20449;-82
2023/12/26 06:03:40;;;;;;;1.63;1.10;;;10.70;98.20;;;;;;6123457;23;20497;-82
2023/12/26 06:06:11;;;;;;;1.67;1.20;;;10.70;98.20;;;;;;6115636;23;20454;-82
2023/12/26 06:08:40;;;;;;;1.60;1.10;;;10.70;98.20;;;;;;6131786;23;20417;-85
2023/12/26 06:11:08;;;;;;;1.60;1.10;;;10.70;98.20;;;;;;6118366;23;20442;-81
2023/12/26 06:13:34;;;;;;;1.60;1.10;;;10.60;98.20;;;;;;6130353;23;20429;-84
2023/12/26 06:16:01;;;;;;;1.60;1.03;;;10.60;98.20;;;;;;6114666;23;20492;-82
2023/12/26 06:18:28;;;;;;;1.60;1.10;;;10.60;98.20;;;;;;6128879;23;20457;-84
2023/12/26 06:20:55;;;;;;;1.60;1.00;;;10.60;98.20;;;;;;6117925;23;20441;-82
2023/12/26 06:23:22;;;;;;;1.60;1.10;;;10.60;98.20;;;;;;6129567;23;20450;-83
2023/12/26 06:25:50;;;;;;;1.60;1.10;;;10.60;98.20;;;;;;6117862;23;20446;-82
2023/12/26 06:28:17;;;;;;;1.60;1.10;;;10.60;98.20;;;;;;6129994;23;20456;-83
2023/12/26 06:30:44;;;;;;;1.63;1.20;;;10.60;98.20;;;;;;6131363;23;20444;-83
2023/12/26 06:33:11;;;;;;;1.60;1.10;;;10.60;98.20;;;;;;6113923;23;20705;-82
2023/12/26 06:35:38;;;;;;;1.63;1.10;;;10.60;98.20;;;;;;6131698;23;20449;-82
2023/12/26 06:38:11;;;;;;;1.60;1.10;;;10.60;98.20;;;;;;6116060;23;20449;-83
2023/12/26 06:40:39;;;;;;;1.67;1.17;;;10.60;98.20;;;;;;6131116;23;20525;-83
2023/12/26 06:43:07;;;;;;;1.67;1.20;;;10.60;98.20;;;;;;6114018;23;20446;-83
2023/12/26 06:45:34;;;;;;;1.63;1.20;;;10.60;98.20;;;;;;6129572;23;20451;-80
2023/12/26 06:48:01;;;;;;;1.60;1.10;;;10.70;98.20;;;;;;6114534;23;20450;-84
2023/12/26 06:50:27;;;;;;;1.60;1.00;;;10.70;98.20;;;;;;6131086;23;20441;-82
2023/12/26 06:52:54;;;;;;;1.60;1.10;;;10.60;98.20;;;;;;6111311;23;20445;-84
2023/12/26 06:55:21;;;;;;;1.60;1.10;;;10.60;98.20;;;;;;6129727;23;20476;-82
2023/12/26 06:57:48;;;;;;;1.60;1.10;;;10.60;98.20;;;;;;6113184;23;20473;-82
2023/12/26 07:00:18;;;;;;;1.60;1.10;;;10.60;98.20;;;;;;6129753;23;20449;-81
2023/12/26 07:02:45;;;;;;;1.60;1.10;;;10.60;98.20;;;;;;6108569;23;20821;-82
2023/12/26 07:05:12;;;;;;;1.60;1.10;;;10.60;98.20;;;;;;6131725;23;20516;-82
2023/12/26 07:07:39;;;;;;;1.60;1.10;;;10.60;98.20;;;;;;6114756;23;20449;-84
2023/12/26 07:10:06;;;;;;;1.60;1.10;;;10.60;98.20;;;;;;6131972;23;20464;-83
2023/12/26 07:12:33;;;;;;;1.60;1.10;;;10.60;98.20;;;;;;6113601;23;20533;-83
2023/12/26 07:15:00;;;;;;;1.60;1.10;;;10.60;98.20;;;;;;6126559;23;20481;-82
2023/12/26 07:17:28;;;;;;;1.60;1.10;;;10.60;98.20;;;;;;6110697;23;20533;-82
2023/12/26 07:19:55;;;;;;;1.60;1.10;;;10.60;98.20;;;;;;6120958;23;20477;-83
2023/12/26 07:22:25;;;;;;;1.60;1.20;;;10.60;98.20;;;;;;6113772;23;20466;-82
2023/12/26 07:24:52;;;;;;;1.60;1.10;;;10.60;98.20;;;;;;6129826;23;20410;-83
2023/12/26 07:27:19;;;;;;;1.60;1.10;;;10.60;98.20;;;;;;6115911;23;20453;-83
2023/12/26 07:29:46;;;;;;;1.70;1.20;;;10.60;98.20;;;;;;6130239;23;20466;-83
2023/12/26 07:32:13;;;;;;;1.60;1.10;;;10.60;98.20;;;;;;6118835;23;20449;-83
2023/12/26 07:34:42;;;;;;;1.60;1.10;;;10.60;98.20;;;;;;6129374;23;20456;-82
2023/12/26 07:37:09;;;;;;;1.70;1.30;;;10.60;98.20;;;;;;6115254;23;20446;-84
2023/12/26 07:39:36;;;;;;;1.60;1.10;;;10.50;98.20;;;;;;6139334;23;20477;-82
2023/12/26 07:42:02;;;;;;;1.70;1.20;;;10.50;98.20;;;;;;6112348;23;20537;-81
2023/12/26 07:44:29;;;;;;;1.60;1.10;;;10.50;98.20;;;;;;6124612;23;20486;-82
2023/12/26 07:46:56;;;;;;;1.60;1.10;;;10.50;98.20;;;;;;6108410;23;20450;-81
2023/12/26 07:49:24;;;;;;;1.63;1.20;;;10.50;98.20;;;;;;6122226;23;20468;-83
2023/12/26 07:51:52;;;;;;;1.67;1.20;;;10.50;98.20;;;;;;6104018;23;20974;-82
2023/12/26 07:54:19;;;;;;;1.60;1.10;;;10.50;98.20;;;;;;6133214;23;21089;-80
2023/12/26 07:56:46;;;;;;;1.63;1.20;;;10.50;98.20;;;;;;6108361;23;20538;-81
2023/12/26 07:59:13;;;;;;;1.60;1.10;;;10.60;98.20;;;;;;6123001;23;20422;-81
2023/12/26 08:01:40;;;;;;;1.60;1.20;;;10.60;98.20;;;;;;6107787;23;20481;-81
2023/12/26 08:04:07;;;;;;;1.63;1.10;;;10.60;98.20;;;;;;6128573;23;20461;-81
2023/12/26 08:06:34;;;;;;;1.67;1.20;;;10.60;98.20;;;;;;6105463;23;20456;-80
2023/12/26 08:09:04;;;;;;;1.80;1.40;;;10.60;98.20;;;;;;6119629;23;20836;-81
2023/12/26 08:11:30;;;;;;;1.60;1.10;;;10.60;98.20;;;;;;6107843;23;20481;-81
2023/12/26 08:13:57;;;;;;;1.60;1.10;;;10.60;98.20;;;;;;6120184;23;20895;-80
2023/12/26 08:16:24;;;;;;;1.60;1.10;;;10.60;98.20;;;;;;6103340;23;20450;-81
2023/12/26 08:18:51;;;;;;;1.60;1.20;;;10.60;98.20;;;;;;6117633;23;20537;-79
2023/12/26 08:21:42;;;;;;;1.60;1.20;;;10.50;98.20;;;;;;6111866;23;20456;-81
2023/12/26 08:24:10;;;;;;;1.60;1.10;;;10.50;98.20;;;;;;6101466;23;20418;-78
2023/12/26 08:26:37;;;;;;;1.60;1.10;;;10.50;98.20;;;;;;6103491;23;20449;-80
2023/12/26 08:29:04;;;;;;;1.60;1.10;;;10.40;98.20;;;;;;6116179;23;20887;-79
2023/12/26 08:31:31;;;;;;;1.60;1.10;;;10.40;98.20;;;;;;6103219;23;20949;-79
2023/12/26 08:33:58;;;;;;;1.60;1.20;;;10.40;98.20;;;;;;6116911;23;20499;-81
2023/12/26 08:36:25;;;;;;;1.60;1.10;;;10.40;98.20;;;;;;6104014;23;20477;-81
2023/12/26 08:38:52;;;;;;;1.60;1.10;;;10.40;98.20;;;;;;6117875;23;20765;-81
2023/12/26 08:41:20;;;;;;;1.60;1.10;;;10.40;98.20;;;;;;6106626;23;20813;-80
2023/12/26 08:43:47;;;;;;;1.60;1.20;;;10.40;98.20;;;;;;6116073;23;20473;-79
2023/12/26 08:46:14;;;;;;;1.60;1.10;;;10.40;98.20;;;;;;6105217;23;20781;-81
2023/12/26 08:48:41;;;;;;;1.60;1.20;;;10.40;98.20;;;;;;6118297;23;20421;-79
2023/12/26 08:51:08;;;;;;;1.60;1.20;;;10.40;98.20;;;;;;6105080;23;20813;-79
2023/12/26 08:53:34;;;;;;;1.60;1.10;;;10.40;98.20;;;;;;6117029;23;20497;-79
2023/12/26 08:56:03;;;;;;;1.70;1.20;;;10.40;98.20;;;;;;6103513;23;20528;-79
2023/12/26 08:58:32;;;;;;;1.60;1.10;;;10.40;98.20;;;;;;6117680;23;20417;-80
2023/12/26 09:01:00;;;;;;;1.60;1.10;;;10.40;98.20;;;;;;6104521;23;20449;-81
2023/12/26 09:03:27;;;;;;;1.60;1.10;;;10.40;98.20;;;;;;6117517;23;20453;-79
2023/12/26 09:05:54;;;;;;;1.60;1.10;;;10.40;98.20;;;;;;6104730;23;20432;-79
2023/12/26 09:08:21;;;;;;;1.60;1.10;;;10.40;98.20;;;;;;6117310;23;20970;-79
2023/12/26 09:10:48;;;;;;;1.60;1.20;;;10.40;98.20;;;;;;6109025;23;20438;-79
2023/12/26 09:13:20;;;;;;;1.60;1.10;;;10.50;98.20;;;;;;6116370;23;20430;-79
2023/12/26 09:15:49;;;;;;;1.60;1.10;;;10.50;98.20;;;;;;6115246;23;20805;-79
2023/12/26 09:18:16;;;;;;;1.60;1.20;;;10.50;98.20;;;;;;6118152;23;20430;-79
2023/12/26 09:20:43;;;;;;;1.70;1.20;;;10.50;98.20;;;;;;6118640;23;20537;-79
2023/12/26 09:23:11;;;;;;;1.60;1.10;;;10.50;98.20;;;;;;6101840;23;20484;-79
2023/12/26 09:25:38;;;;;;;1.60;1.10;;;10.50;98.20;;;;;;6128836;23;20453;-79
2023/12/26 09:28:07;;;;;;;1.60;1.10;;;10.60;98.20;;;;;;6102809;23;20472;-79
2023/12/26 09:30:34;;;;;;;1.60;1.10;;;10.60;98.20;;;;;;6119243;23;20441;-79
2023/12/26 09:33:02;;;;;;;1.63;1.20;;;10.60;98.20;;;;;;6101400;23;20449;-81
2023/12/26 09:35:29;;;;;;;1.60;1.10;;;10.70;98.20;;;;;;6121422;23;20744;-81
2023/12/26 09:37:56;;;;;;;1.60;1.10;;;10.70;98.20;;;;;;6103595;23;20533;-81
2023/12/26 09:40:23;;;;;;;1.60;1.13;;;10.80;98.20;;;;;;6119195;23;20469;-80
2023/12/26 09:42:56;;;;;;;1.63;1.17;;;10.80;98.20;;;;;;6104462;23;20536;-81
2023/12/26 09:45:26;;;;;;;1.60;1.10;;;10.90;98.20;;;;;;6121306;23;20693;-80
2023/12/26 09:47:54;;;;;;;1.63;1.13;;;10.90;98.20;;;;;;6104554;23;20758;-81
2023/12/26 09:50:22;;;;;;;1.67;1.20;;;10.90;98.20;;;;;;6122555;23;20469;-81
2023/12/26 09:52:53;;;;;;;1.63;1.10;;;11.00;98.20;;;;;;6103837;23;20454;-81
2023/12/26 09:55:21;;;;;;;1.60;1.10;;;11.00;98.20;;;;;;6120905;23;20512;-81
2023/12/26 09:57:48;;;;;;;1.70;1.20;;;11.00;98.20;;;;;;6107055;23;20566;-81
2023/12/26 10:00:15;;;;;;;1.60;1.07;;;11.00;98.20;;;;;;6124353;23;20473;-81
2023/12/26 10:02:43;;;;;;;1.70;1.20;;;11.00;98.20;;;;;;6105032;23;21102;-81
2023/12/26 10:05:10;;;;;;;1.60;1.10;;;11.00;98.20;;;;;;6121135;23;20514;-81
2023/12/26 10:07:39;;;;;;;1.70;1.20;;;10.90;98.20;;;;;;6107068;23;20814;-81
2023/12/26 10:10:06;;;;;;;1.60;1.03;;;11.00;98.20;;;;;;6120549;23;20524;-80
2023/12/26 10:12:34;;;;;;;1.63;1.10;;;11.00;98.20;;;;;;6105332;23;20456;-81
2023/12/26 10:15:03;;;;;;;1.60;1.00;;;11.00;98.20;;;;;;6123881;23;20421;-81
2023/12/26 10:17:31;;;;;;;1.70;1.20;;;11.00;98.20;;;;;;6112646;23;20803;-80
2023/12/26 10:19:58;;;;;;;1.67;1.10;;;11.10;98.20;;;;;;6124778;23;20465;-81
2023/12/26 10:22:25;;;;;;;1.60;1.00;;;11.20;98.20;;;;;;6108667;23;21061;-81
2023/12/26 10:24:55;;;;;;;1.63;1.10;;;11.20;98.20;;;;;;6122693;23;20453;-81
2023/12/26 10:27:23;;;;;;;1.67;1.10;;;11.30;98.20;;;;;;6110823;23;20456;-81
2023/12/26 10:29:54;;;;;;;1.60;1.00;;;11.30;98.20;;;;;;6122685;23;20442;-81
2023/12/26 10:32:24;;;;;;;1.63;1.10;;;11.40;98.20;;;;;;6107248;23;20879;-81
2023/12/26 10:34:51;;;;;;;1.60;1.10;;;11.40;98.20;;;;;;6133010;23;20905;-81
2023/12/26 10:37:21;;;;;;;1.60;1.10;;;11.40;98.20;;;;;;6106100;23;20545;-81
2023/12/26 10:39:48;;;;;;;1.60;1.00;;;11.40;98.20;;;;;;6122095;23;20441;-81
2023/12/26 10:42:17;;;;;;;1.60;1.07;;;11.50;98.20;;;;;;6107424;23;20789;-80
2023/12/26 10:45:04;;;;;;;1.60;1.10;;;11.50;98.20;;;;;;6120566;23;20682;-81
2023/12/26 10:47:32;;;;;;;1.60;1.03;;;11.50;98.20;;;;;;6106566;23;20457;-81
2023/12/26 10:50:01;;;;;;;1.60;1.00;;;11.40;98.20;;;;;;6121095;23;20772;-81
2023/12/26 10:52:30;;;;;;;1.63;1.20;;;11.40;98.20;;;;;;6105771;23;20482;-81
2023/12/26 10:55:00;;;;;;;1.60;1.10;;;11.30;98.20;;;;;;6120646;23;20425;-81
2023/12/26 10:57:30;;;;;;;1.60;1.10;;;11.20;98.20;;;;;;6106387;23;20866;-81
2023/12/26 11:00:48;;;;;;;1.60;1.10;;;11.10;98.20;;;;;;6122937;23;20984;-81
2023/12/26 13:53:16;;;;;;;1.60;1.10;;;10.30;98.20;;;;;;6121906;23;20578;-81
2023/12/26 13:55:43;;;;;;;1.60;1.10;;;10.20;98.20;;;;;;6117051;23;20536;-80
2023/12/26 13:58:09;;;;;;;1.60;1.10;;;10.20;98.20;;;;;;6098879;23;20489;-78
2023/12/26 14:00:36;;;;;;;1.60;1.20;;;10.20;98.20;;;;;;6113067;23;20796;-79
2023/12/26 14:03:03;;;;;;;1.60;1.10;;;10.10;98.20;;;;;;6095656;23;20257;-80
2023/12/26 14:05:30;;;;;;;1.60;1.10;;;10.10;98.20;;;;;;6115815;23;20454;-81
2023/12/26 14:07:57;;;;;;;1.60;1.10;;;10.10;98.20;;;;;;6099497;23;21025;-81
2023/12/26 14:10:25;;;;;;;1.60;1.10;;;10.00;98.20;;;;;;6119991;23;20449;-80
2023/12/26 14:12:52;;;;;;;1.60;1.10;;;10.00;98.20;;;;;;6102036;23;20529;-81
2023/12/26 14:15:19;;;;;;;1.60;1.10;;;10.00;98.20;;;;;;6117577;23;20472;-82
2023/12/26 14:17:46;;;;;;;1.60;1.10;;;9.90;98.20;;;;;;6100576;23;20453;-82
2023/12/26 14:20:12;;;;;;;1.60;1.10;;;9.90;98.20;;;;;;6127142;23;20434;-81
2023/12/26 14:22:39;;;;;;;1.60;1.20;;;9.90;98.20;;;;;;6102929;23;20453;-83
2023/12/26 14:25:05;;;;;;;1.60;1.20;;;9.80;98.20;;;;;;6116485;23;20453;-80
2023/12/26 14:27:33;;;;;;;1.60;1.10;;;9.80;98.20;;;;;;6102315;23;20513;-83
2023/12/26 14:30:00;;;;;;;1.60;1.10;;;9.80;98.20;;;;;;6116646;23;20182;-82
2023/12/26 14:32:27;;;;;;;1.60;1.10;;;9.80;98.20;;;;;;6105221;23;20622;-83
2023/12/26 14:34:53;;;;;;;1.70;1.30;;;9.80;98.20;;;;;;6117376;23;20442;-83
2023/12/26 14:37:20;;;;;;;1.60;1.10;;;9.80;98.20;;;;;;6102022;23;20501;-82
2023/12/26 14:39:47;;;;;;;1.60;1.10;;;9.70;98.20;;;;;;6118833;23;20449;-82
2023/12/26 14:42:14;;;;;;;1.60;1.20;;;9.70;98.20;;;;;;6100759;23;20450;-82
2023/12/26 14:44:42;;;;;;;1.60;1.10;;;9.70;98.20;;;;;;6117961;23;20465;-82
2023/12/26 14:47:09;;;;;;;1.60;1.13;;;9.70;98.20;;;;;;6101560;23;20453;-81
2023/12/26 14:49:35;;;;;;;1.60;1.10;;;9.70;98.20;;;;;;6117321;23;20429;-83
2023/12/26 14:52:02;;;;;;;1.60;1.17;;;9.70;98.20;;;;;;6105449;23;20464;-83
2023/12/26 14:54:29;;;;;;;1.60;1.10;;;9.60;98.20;;;;;;6120229;23;20426;-84
2023/12/26 14:56:56;;;;;;;1.60;1.20;;;9.60;98.20;;;;;;6111575;23;20450;-81
2023/12/26 14:59:26;;;;;;;1.60;1.20;;;9.60;98.20;;;;;;6130432;23;20941;-81
2023/12/26 15:02:01;;;;;;;1.60;1.00;;;9.50;98.20;;;;;;6106189;23;20453;-82
2023/12/26 15:04:29;;;;;;;1.60;1.10;;;9.50;98.20;;;;;;6131056;23;20445;-82
2023/12/26 15:07:29;;;;;;;1.60;1.20;;;9.50;98.20;;;;;;6108429;23;20445;-79
2023/12/26 15:09:56;;;;;;;1.67;1.23;;;9.60;98.20;;;;;;6093966;23;20425;-83
2023/12/26 15:12:23;;;;;;;1.70;1.20;;;9.50;98.20;;;;;;6106346;23;21005;-81
2023/12/26 15:14:50;;;;;;;1.60;1.20;;;9.60;98.20;;;;;;6121757;23;20434;-80
2023/12/26 15:17:18;;;;;;;1.70;1.30;;;9.60;98.20;;;;;;6106138;23;20449;-83
2023/12/26 15:19:45;;;;;;;1.60;1.10;;;9.60;98.20;;;;;;6130997;23;20476;-82
2023/12/26 15:22:12;;;;;;;1.60;1.10;;;9.60;98.20;;;;;;6106659;23;20484;-82
2023/12/26 15:24:39;;;;;;;1.70;1.20;;;9.60;98.20;;;;;;6121472;23;20445;-83
2023/12/26 15:27:06;;;;;;;1.60;1.20;;;9.60;98.20;;;;;;6106176;23;20813;-83
2023/12/26 15:29:33;;;;;;;1.60;1.20;;;9.60;98.20;;;;;;6120546;23;20930;-83
2023/12/26 15:32:00;;;;;;;1.60;1.20;;;9.60;98.20;;;;;;6106028;23;20458;-82
2023/12/26 15:34:28;;;;;;;1.63;1.20;;;9.60;98.20;;;;;;6119598;23;20422;-82
2023/12/26 15:36:55;;;;;;;1.60;1.10;;;9.60;98.20;;;;;;6106184;23;20477;-82
2023/12/26 15:39:22;;;;;;;1.60;1.20;;;9.60;98.20;;;;;;6121120;23;20418;-82
2023/12/26 15:41:49;;;;;;;1.60;1.20;;;9.60;98.20;;;;;;6106718;23;20496;-82